sensor_id;sensor_type;location;lat;lon;timestamp;pressure;altitude;pressure_sealevel;temperature;humidity
77149;BME280;66122;47.130;16.844;2023-07-13T00:07:24;99450.88;;;19.32;92.72
77149;BME280;66122;47.130;16.844;2023-07-13T00:17:27;99451.06;;;19.02;95.91
77149;BME280;66122;47.130;16.844;2023-07-13T00:27:31;99432.31;;;18.92;97.58
77149;BME280;66122;47.130;16.844;2023-07-13T00:37:34;99408.84;;;18.46;99.88
77149;BME280;66122;47.130;16.844;2023-07-13T00:47:39;99409.16;;;18.72;98.88
77149;BME280;66122;47.130;16.844;2023-07-13T00:57:44;99391.63;;;18.78;98.42
77149;BME280;66122;47.130;16.844;2023-07-13T01:07:49;99392.16;;;18.52;99.93
77149;BME280;66122;47.130;16.844;2023-07-13T01:17:52;99351.50;;;18.66;100.00
77149;BME280;66122;47.130;16.844;2023-07-13T01:27:56;99358.59;;;18.58;100.00
77149;BME280;66122;47.130;16.844;2023-07-13T01:37:59;99322.28;;;18.63;100.00
77149;BME280;66122;47.130;16.844;2023-07-13T01:48:03;99343.88;;;18.71;99.90
77149;BME280;66122;47.130;16.844;2023-07-13T01:58:09;99360.13;;;18.60;100.00
77149;BME280;66122;47.130;16.844;2023-07-13T02:08:13;99362.81;;;18.51;100.00
77149;BME280;66122;47.130;16.844;2023-07-13T02:18:16;99413.63;;;18.33;100.00
77149;BME280;66122;47.130;16.844;2023-07-13T02:28:19;99424.94;;;18.46;100.00
77149;BME280;66122;47.130;16.844;2023-07-13T02:38:22;99368.22;;;19.07;99.28
77149;BME280;66122;47.130;16.844;2023-07-13T02:48:25;99532.19;;;18.08;100.00
77149;BME280;66122;47.130;16.844;2023-07-13T02:58:27;99703.56;;;17.90;100.00
77149;BME280;66122;47.130;16.844;2023-07-13T03:08:30;99749.94;;;17.38;100.00
77149;BME280;66122;47.130;16.844;2023-07-13T03:18:35;99735.53;;;17.50;100.00
77149;BME280;66122;47.130;16.844;2023-07-13T03:28:41;99807.66;;;17.64;100.00
77149;BME280;66122;47.130;16.844;2023-07-13T03:38:53;99791.28;;;17.67;100.00
77149;BME280;66122;47.130;16.844;2023-07-13T03:49:00;99797.59;;;17.77;100.00
77149;BME280;66122;47.130;16.844;2023-07-13T03:59:02;99660.47;;;17.82;100.00
77149;BME280;66122;47.130;16.844;2023-07-13T04:09:05;99595.41;;;18.01;100.00
77149;BME280;66122;47.130;16.844;2023-07-13T04:19:09;99473.13;;;17.88;100.00
77149;BME280;66122;47.130;16.844;2023-07-13T04:29:13;99210.94;;;17.63;100.00
77149;BME280;66122;47.130;16.844;2023-07-13T04:39:16;99178.75;;;17.73;100.00
77149;BME280;66122;47.130;16.844;2023-07-13T04:49:18;99193.59;;;17.86;100.00
77149;BME280;66122;47.130;16.844;2023-07-13T04:59:21;99309.69;;;18.16;100.00
77149;BME280;66122;47.130;16.844;2023-07-13T05:09:24;99404.25;;;17.89;100.00
77149;BME280;66122;47.130;16.844;2023-07-13T05:19:26;99496.56;;;17.96;100.00
77149;BME280;66122;47.130;16.844;2023-07-13T05:29:29;99535.19;;;18.14;100.00
77149;BME280;66122;47.130;16.844;2023-07-13T05:39:32;99548.22;;;19.07;100.00
77149;BME280;66122;47.130;16.844;2023-07-13T05:49:36;99569.41;;;19.20;100.00
77149;BME280;66122;47.130;16.844;2023-07-13T05:59:39;99592.06;;;19.56;100.00
77149;BME280;66122;47.130;16.844;2023-07-13T06:09:42;99593.44;;;19.79;100.00
77149;BME280;66122;47.130;16.844;2023-07-13T06:19:47;99602.28;;;19.99;100.00
77149;BME280;66122;47.130;16.844;2023-07-13T06:29:50;99632.63;;;20.38;100.00
77149;BME280;66122;47.130;16.844;2023-07-13T06:39:53;99638.41;;;20.97;100.00
77149;BME280;66122;47.130;16.844;2023-07-13T06:49:56;99627.63;;;21.25;98.35
77149;BME280;66122;47.130;16.844;2023-07-13T06:59:58;99629.59;;;21.58;95.48
77149;BME280;66122;47.130;16.844;2023-07-13T07:10:02;99632.84;;;21.88;92.11
77149;BME280;66122;47.130;16.844;2023-07-13T07:20:06;99627.72;;;22.96;92.35
77149;BME280;66122;47.130;16.844;2023-07-13T07:30:09;99616.81;;;23.46;88.02
77149;BME280;66122;47.130;16.844;2023-07-13T07:40:14;99607.53;;;23.81;88.10
77149;BME280;66122;47.130;16.844;2023-07-13T07:50:20;99610.22;;;23.49;81.51
77149;BME280;66122;47.130;16.844;2023-07-13T08:00:26;99597.06;;;23.62;84.45
77149;BME280;66122;47.130;16.844;2023-07-13T08:10:48;99608.44;;;24.76;81.54
77149;BME280;66122;47.130;16.844;2023-07-13T08:20:51;99598.88;;;24.57;76.07
77149;BME280;66122;47.130;16.844;2023-07-13T08:31:04;99594.84;;;25.15;77.89
77149;BME280;66122;47.130;16.844;2023-07-13T08:41:13;99586.16;;;25.65;72.62
77149;BME280;66122;47.130;16.844;2023-07-13T09:12:08;99625.47;;;26.29;63.82
77149;BME280;66122;47.130;16.844;2023-07-13T09:22:18;99621.91;;;27.09;64.95
77149;BME280;66122;47.130;16.844;2023-07-13T09:32:22;99619.47;;;26.49;63.54
77149;BME280;66122;47.130;16.844;2023-07-13T09:42:27;99625.81;;;26.85;57.54
77149;BME280;66122;47.130;16.844;2023-07-13T09:52:49;99625.94;;;27.13;56.76
77149;BME280;66122;47.130;16.844;2023-07-13T10:03:21;99616.91;;;27.70;54.53
77149;BME280;66122;47.130;16.844;2023-07-13T10:13:44;99619.63;;;28.53;58.18
77149;BME280;66122;47.130;16.844;2023-07-13T10:24:24;99605.66;;;28.69;58.61
77149;BME280;66122;47.130;16.844;2023-07-13T10:34:25;99610.56;;;29.55;54.46
77149;BME280;66122;47.130;16.844;2023-07-13T10:44:34;99587.06;;;29.73;50.03
77149;BME280;66122;47.130;16.844;2023-07-13T10:54:40;99583.81;;;28.69;48.60
77149;BME280;66122;47.130;16.844;2023-07-13T11:04:47;99586.63;;;29.57;50.97
77149;BME280;66122;47.130;16.844;2023-07-13T11:35:26;99583.56;;;27.95;54.04
77149;BME280;66122;47.130;16.844;2023-07-13T11:45:36;99568.59;;;28.13;55.13
77149;BME280;66122;47.130;16.844;2023-07-13T11:55:49;99567.88;;;27.70;53.92
77149;BME280;66122;47.130;16.844;2023-07-13T12:06:02;99566.38;;;27.67;56.91
77149;BME280;66122;47.130;16.844;2023-07-13T12:16:27;99574.00;;;27.08;55.76
77149;BME280;66122;47.130;16.844;2023-07-13T12:26:59;99545.53;;;26.74;60.31
77149;BME280;66122;47.130;16.844;2023-07-13T12:37:16;99561.63;;;26.40;63.66
77149;BME280;66122;47.130;16.844;2023-07-13T12:47:20;99546.72;;;26.21;64.90
77149;BME280;66122;47.130;16.844;2023-07-13T12:57:29;99560.94;;;25.94;67.65
77149;BME280;66122;47.130;16.844;2023-07-13T13:07:38;99547.09;;;26.18;65.73
77149;BME280;66122;47.130;16.844;2023-07-13T13:17:54;99574.28;;;25.43;68.93
77149;BME280;66122;47.130;16.844;2023-07-13T13:27:56;99579.38;;;24.23;86.98
77149;BME280;66122;47.130;16.844;2023-07-13T13:38:13;99577.91;;;23.47;95.66
77149;BME280;66122;47.130;16.844;2023-07-13T13:48:34;99602.59;;;23.28;91.20
77149;BME280;66122;47.130;16.844;2023-07-13T13:58:44;99615.94;;;23.38;96.49
77149;BME280;66122;47.130;16.844;2023-07-13T14:08:47;99588.34;;;23.02;100.00
77149;BME280;66122;47.130;16.844;2023-07-13T14:18:51;99563.13;;;22.77;99.75
77149;BME280;66122;47.130;16.844;2023-07-13T14:29:00;99624.50;;;22.58;99.07
77149;BME280;66122;47.130;16.844;2023-07-13T14:39:21;99662.91;;;22.36;100.00
77149;BME280;66122;47.130;16.844;2023-07-13T14:49:34;99673.88;;;22.09;100.00
77149;BME280;66122;47.130;16.844;2023-07-13T14:59:37;99688.53;;;21.71;100.00
77149;BME280;66122;47.130;16.844;2023-07-13T15:09:40;99666.09;;;21.70;100.00
77149;BME280;66122;47.130;16.844;2023-07-13T15:19:43;99646.66;;;21.85;100.00
77149;BME280;66122;47.130;16.844;2023-07-13T15:29:45;99662.16;;;22.00;100.00
77149;BME280;66122;47.130;16.844;2023-07-13T15:39:48;99704.75;;;21.53;100.00
77149;BME280;66122;47.130;16.844;2023-07-13T15:49:51;99741.16;;;20.19;100.00
77149;BME280;66122;47.130;16.844;2023-07-13T15:59:53;99736.47;;;18.85;100.00
77149;BME280;66122;47.130;16.844;2023-07-13T16:09:56;99749.66;;;18.67;100.00
77149;BME280;66122;47.130;16.844;2023-07-13T16:20:00;99726.84;;;18.82;100.00
77149;BME280;66122;47.130;16.844;2023-07-13T16:30:15;99699.47;;;18.98;100.00
77149;BME280;66122;47.130;16.844;2023-07-13T16:40:21;99717.09;;;19.40;100.00
77149;BME280;66122;47.130;16.844;2023-07-13T16:50:26;99701.53;;;19.44;100.00
77149;BME280;66122;47.130;16.844;2023-07-13T17:00:31;99721.63;;;19.30;100.00
77149;BME280;66122;47.130;16.844;2023-07-13T17:10:34;99720.56;;;19.12;100.00
77149;BME280;66122;47.130;16.844;2023-07-13T17:20:39;99745.06;;;19.19;100.00
77149;BME280;66122;47.130;16.844;2023-07-13T17:30:49;99731.97;;;18.85;100.00
77149;BME280;66122;47.130;16.844;2023-07-13T17:40:52;99819.09;;;18.71;100.00
77149;BME280;66122;47.130;16.844;2023-07-13T17:50:55;99793.03;;;18.42;100.00
77149;BME280;66122;47.130;16.844;2023-07-13T18:01:03;99827.91;;;18.21;100.00
77149;BME280;66122;47.130;16.844;2023-07-13T18:11:13;99817.50;;;17.95;100.00
77149;BME280;66122;47.130;16.844;2023-07-13T18:21:20;99796.78;;;17.66;100.00
77149;BME280;66122;47.130;16.844;2023-07-13T18:31:36;99802.03;;;17.67;100.00
77149;BME280;66122;47.130;16.844;2023-07-13T18:42:08;99812.50;;;17.70;100.00
77149;BME280;66122;47.130;16.844;2023-07-13T18:52:20;99824.53;;;17.76;100.00
77149;BME280;66122;47.130;16.844;2023-07-13T19:02:30;99810.53;;;17.72;100.00
77149;BME280;66122;47.130;16.844;2023-07-13T19:12:43;99824.16;;;17.58;100.00
77149;BME280;66122;47.130;16.844;2023-07-13T19:22:55;99845.41;;;17.50;100.00
77149;BME280;66122;47.130;16.844;2023-07-13T19:33:11;99849.41;;;17.44;100.00
77149;BME280;66122;47.130;16.844;2023-07-13T19:43:20;99847.09;;;17.51;100.00
77149;BME280;66122;47.130;16.844;2023-07-13T19:53:23;99883.13;;;17.58;100.00
77149;BME280;66122;47.130;16.844;2023-07-13T20:03:32;99861.34;;;17.51;100.00
77149;BME280;66122;47.130;16.844;2023-07-13T20:13:38;99826.03;;;17.69;100.00
77149;BME280;66122;47.130;16.844;2023-07-13T20:23:41;99824.56;;;17.53;100.00
77149;BME280;66122;47.130;16.844;2023-07-13T20:33:45;99797.19;;;17.39;100.00
77149;BME280;66122;47.130;16.844;2023-07-13T20:43:48;99780.88;;;17.42;100.00
77149;BME280;66122;47.130;16.844;2023-07-13T20:53:54;99788.53;;;17.46;100.00
77149;BME280;66122;47.130;16.844;2023-07-13T21:04:00;99785.22;;;17.54;100.00
77149;BME280;66122;47.130;16.844;2023-07-13T21:14:03;99781.03;;;16.96;100.00
77149;BME280;66122;47.130;16.844;2023-07-13T21:24:08;99814.63;;;17.11;100.00
77149;BME280;66122;47.130;16.844;2023-07-13T21:34:18;99856.41;;;17.13;100.00
77149;BME280;66122;47.130;16.844;2023-07-13T21:44:29;99855.16;;;16.95;100.00
77149;BME280;66122;47.130;16.844;2023-07-13T21:54:34;99900.41;;;16.87;100.00
77149;BME280;66122;47.130;16.844;2023-07-13T22:04:39;99877.66;;;16.82;100.00
77149;BME280;66122;47.130;16.844;2023-07-13T22:14:42;99881.94;;;16.84;100.00
77149;BME280;66122;47.130;16.844;2023-07-13T22:24:46;99863.25;;;16.60;100.00
77149;BME280;66122;47.130;16.844;2023-07-13T22:34:49;99891.06;;;16.58;100.00
77149;BME280;66122;47.130;16.844;2023-07-13T22:44:51;99899.84;;;16.60;100.00
77149;BME280;66122;47.130;16.844;2023-07-13T22:54:54;99894.00;;;16.55;100.00
77149;BME280;66122;47.130;16.844;2023-07-13T23:04:58;99895.44;;;16.59;100.00
77149;BME280;66122;47.130;16.844;2023-07-13T23:15:08;99892.69;;;16.36;100.00
77149;BME280;66122;47.130;16.844;2023-07-13T23:25:13;99912.28;;;16.37;100.00
77149;BME280;66122;47.130;16.844;2023-07-13T23:35:18;99891.19;;;16.21;100.00
77149;BME280;66122;47.130;16.844;2023-07-13T23:45:24;99899.47;;;16.29;100.00
77149;BME280;66122;47.130;16.844;2023-07-13T23:55:29;99909.84;;;16.34;100.00
